Time;durP1;ratioP1;P1;durP2;ratioP2;P2;SDS_P1;SDS_P2;PMS_P1;PMS_P2;Temp;Humidity;BMP_temperature;BMP_pressure;BME280_temperature;BME280_humidity;BME280_pressure;Samples;Min_cycle;Max_cycle;Signal;HPM_P1;HPM_P2
2022/05/12 00:01:10;;;;;;;14.93;9.77;;;;;;;17.90;nan;100685.44;5059747;28;20059;-47
2022/05/12 00:03:36;;;;;;;12.77;10.10;;;;;;;17.95;nan;100682.66;5055724;28;20036;-47
2022/05/12 00:06:02;;;;;;;13.73;9.98;;;;;;;18.01;nan;100670.63;5059608;28;20091;-46
2022/05/12 00:08:27;;;;;;;12.45;9.68;;;;;;;18.07;nan;100647.72;5067515;28;20012;-45
2022/05/12 00:10:54;;;;;;;11.40;9.85;;;;;;;18.09;nan;100635.47;5056039;28;20340;-46
2022/05/12 00:13:19;;;;;;;10.57;9.43;;;;;;;18.10;nan;100628.16;5061345;28;20032;-45
2022/05/12 00:15:45;;;;;;;12.88;9.38;;;;;;;18.10;nan;100617.31;5057346;28;20393;-45
2022/05/12 00:18:11;;;;;;;14.07;9.13;;;;;;;18.12;nan;100623.22;5061079;28;20256;-48
2022/05/12 00:20:39;;;;;;;14.27;10.35;;;;;;;18.13;nan;100641.09;5058007;28;20414;-47
2022/05/12 00:23:07;;;;;;;14.43;10.60;;;;;;;18.12;nan;100642.19;5059899;28;20024;-45
2022/05/12 00:25:33;;;;;;;15.23;11.32;;;;;;;18.01;nan;100636.19;5056724;28;20103;-47
2022/05/12 00:27:59;;;;;;;14.45;9.95;;;;;;;18.02;nan;100616.09;5064013;28;20113;-45
2022/05/12 00:30:24;;;;;;;13.80;9.93;;;;;;;18.09;nan;100600.22;5064471;28;20394;-45
2022/05/12 00:32:50;;;;;;;17.10;11.10;;;;;;;18.10;nan;100591.00;5064681;28;20036;-46
2022/05/12 00:35:17;;;;;;;16.45;9.98;;;;;;;18.10;nan;100576.63;5060547;28;20239;-45
2022/05/12 00:37:43;;;;;;;18.70;10.38;;;;;;;18.10;nan;100585.56;5058941;28;20037;-46
2022/05/12 00:40:10;;;;;;;13.00;10.82;;;;;;;18.11;nan;100599.94;5061771;28;20024;-47
2022/05/12 00:42:36;;;;;;;13.25;10.02;;;;;;;18.09;nan;100616.50;5064409;28;20033;-46
2022/05/12 00:45:03;;;;;;;16.15;11.18;;;;;;;18.00;nan;100617.50;5057989;28;20130;-46
2022/05/12 00:47:28;;;;;;;16.67;12.50;;;;;;;17.86;nan;100622.91;5059491;28;20020;-45
2022/05/12 00:49:55;;;;;;;13.95;11.60;;;;;;;17.78;nan;100623.63;5062328;28;20026;-46
2022/05/12 00:52:29;;;;;;;15.73;11.93;;;;;;;17.71;nan;100612.34;5062539;28;20490;-44
2022/05/12 00:55:01;;;;;;;13.90;11.93;;;;;;;17.67;nan;100617.53;5060877;28;20576;-44
2022/05/12 00:57:37;;;;;;;15.18;11.27;;;;;;;17.52;nan;100612.38;5059314;28;20032;-45
2022/05/12 01:00:08;;;;;;;17.23;12.05;;;;;;;17.50;nan;100609.16;5064673;28;20059;-45
2022/05/12 01:02:36;;;;;;;12.90;10.40;;;;;;;17.44;nan;100613.09;5061272;28;20032;-46
2022/05/12 01:05:03;;;;;;;14.95;11.05;;;;;;;17.40;nan;100623.69;5057216;28;21401;-45
2022/05/12 01:07:29;;;;;;;14.50;12.15;;;;;;;17.25;nan;100620.44;5062587;28;20036;-45
2022/05/12 01:09:55;;;;;;;16.92;12.18;;;;;;;17.25;nan;100625.84;5064611;28;20028;-45
2022/05/12 01:12:21;;;;;;;13.73;10.73;;;;;;;17.31;nan;100619.25;5061866;28;20041;-46
2022/05/12 01:14:47;;;;;;;12.63;9.73;;;;;;;17.37;nan;100628.88;5065046;28;20032;-46
2022/05/12 01:17:12;;;;;;;14.77;10.63;;;;;;;17.41;nan;100624.47;5058027;28;20043;-47
2022/05/12 01:19:40;;;;;;;12.52;9.50;;;;;;;17.37;nan;100618.06;5055070;28;20024;-45
2022/05/12 01:22:11;;;;;;;14.18;9.70;;;;;;;17.27;nan;100607.41;5062372;28;20022;-48
2022/05/12 01:24:39;;;;;;;13.80;10.00;;;;;;;17.19;nan;100592.63;5059063;28;20107;-46
2022/05/12 01:27:22;;;;;;;13.63;9.23;;;;;;;17.15;nan;100595.13;5062890;28;20023;-46
2022/05/12 01:29:51;;;;;;;10.45;8.15;;;;;;;17.12;nan;100594.91;5059315;28;20591;-46
2022/05/12 01:32:18;;;;;;;13.57;9.40;;;;;;;17.15;nan;100578.06;5059250;28;20031;-46
2022/05/12 01:34:45;;;;;;;13.30;8.95;;;;;;;17.11;nan;100590.59;5061135;28;20028;-46
2022/05/12 01:37:11;;;;;;;11.88;8.35;;;;;;;17.02;nan;100579.63;5059567;28;20020;-47
2022/05/12 01:39:37;;;;;;;14.23;9.10;;;;;;;16.98;nan;100602.97;5057225;28;20035;-46
2022/05/12 01:42:05;;;;;;;12.65;9.10;;;;;;;16.87;nan;100615.03;5054692;28;20025;-46
2022/05/12 01:44:31;;;;;;;13.27;9.25;;;;;;;16.77;nan;100613.28;5056837;28;20497;-47
2022/05/12 01:46:57;;;;;;;17.40;9.57;;;;;;;16.72;nan;100635.03;5061039;28;20033;-45
2022/05/12 01:49:23;;;;;;;14.55;10.35;;;;;;;16.65;nan;100639.13;5058659;28;20677;-45
2022/05/12 01:51:56;;;;;;;21.27;12.73;;;;;;;16.53;nan;100659.31;5054854;28;20036;-46
2022/05/12 01:54:24;;;;;;;16.92;13.18;;;;;;;16.50;nan;100681.50;5054546;28;20025;-44
2022/05/12 01:56:50;;;;;;;27.10;18.63;;;;;;;16.55;nan;100703.09;5054376;28;20028;-45
2022/05/12 01:59:17;;;;;;;22.23;14.60;;;;;;;16.58;nan;100721.44;5055325;28;20056;-45
2022/05/12 02:01:43;;;;;;;18.88;13.30;;;;;;;16.62;nan;100749.53;5053164;28;20462;-47
2022/05/12 02:04:08;;;;;;;22.42;15.40;;;;;;;16.62;nan;100736.00;5053523;28;20058;-47
2022/05/12 02:06:34;;;;;;;21.75;14.75;;;;;;;16.62;nan;100703.53;5052715;28;20090;-46
2022/05/12 02:09:00;;;;;;;23.02;14.77;;;;;;;16.45;nan;100705.91;5057196;28;20504;-44
2022/05/12 02:11:26;;;;;;;20.58;14.40;;;;;;;16.23;nan;100721.84;5059353;28;20056;-44
2022/05/12 02:13:52;;;;;;;17.92;13.57;;;;;;;16.05;nan;100717.16;5055914;28;20548;-44
2022/05/12 02:16:17;;;;;;;26.35;13.30;;;;;;;15.87;nan;100721.38;5055829;28;20536;-44
2022/05/12 02:18:43;;;;;;;21.38;15.63;;;;;;;15.76;nan;100717.13;5060814;28;20074;-44
2022/05/12 02:21:09;;;;;;;19.33;13.70;;;;;;;15.67;nan;100700.75;5066281;28;20035;-44
2022/05/12 02:23:36;;;;;;;25.55;15.82;;;;;;;15.60;nan;100698.34;5063365;28;20112;-45
2022/05/12 02:26:02;;;;;;;22.50;15.98;;;;;;;15.53;nan;100699.75;5058372;28;20455;-44
2022/05/12 02:28:27;;;;;;;23.77;16.20;;;;;;;15.49;nan;100714.91;5060532;28;20012;-45
2022/05/12 02:30:53;;;;;;;23.40;16.67;;;;;;;15.45;nan;100711.97;5061327;28;20020;-47
2022/05/12 02:33:19;;;;;;;22.35;16.10;;;;;;;15.52;nan;100700.84;5062888;28;20063;-45
2022/05/12 02:35:44;;;;;;;24.95;17.75;;;;;;;15.63;nan;100683.50;5058968;28;20505;-45
2022/05/12 02:38:11;;;;;;;22.20;16.35;;;;;;;15.70;nan;100683.97;5063383;28;20505;-45
2022/05/12 02:40:37;;;;;;;24.50;16.73;;;;;;;15.81;nan;100692.81;5062162;28;20028;-44
2022/05/12 02:43:22;;;;;;;23.85;16.70;;;;;;;15.86;nan;100698.94;5064906;28;20035;-45
2022/05/12 02:46:02;;;;;;;23.10;16.70;;;;;;;15.87;nan;100687.06;5064369;28;20414;-45
2022/05/12 02:48:33;;;;;;;23.77;17.42;;;;;;;15.95;nan;100669.41;5060018;28;20028;-45
2022/05/12 02:50:59;;;;;;;23.40;16.88;;;;;;;16.08;nan;100657.13;5061879;28;20348;-46
2022/05/12 02:53:26;;;;;;;27.45;17.35;;;;;;;16.14;nan;100673.00;5060161;28;20020;-45
2022/05/12 02:55:52;;;;;;;23.92;16.10;;;;;;;16.14;nan;100673.00;5062338;28;20031;-45
2022/05/12 02:58:18;;;;;;;23.92;15.85;;;;;;;16.15;nan;100671.09;5064984;28;20035;-46
2022/05/12 03:00:44;;;;;;;18.85;13.18;;;;;;;16.07;nan;100672.53;5062675;28;20580;-46
2022/05/12 03:03:10;;;;;;;15.18;10.85;;;;;;;16.07;nan;100680.63;5063746;28;21172;-45
2022/05/12 03:05:37;;;;;;;13.85;9.20;;;;;;;16.04;nan;100691.22;5060887;28;20123;-45
2022/05/12 03:08:04;;;;;;;13.00;8.60;;;;;;;15.96;nan;100703.44;5064140;28;20021;-45
2022/05/12 03:10:31;;;;;;;12.65;7.90;;;;;;;15.83;nan;100687.91;5068097;28;20390;-45
2022/05/12 03:12:57;;;;;;;9.95;6.80;;;;;;;15.77;nan;100714.16;5059876;28;20033;-44
2022/05/12 03:15:23;;;;;;;11.73;7.75;;;;;;;15.77;nan;100700.63;5063749;28;20025;-45
2022/05/12 03:17:49;;;;;;;13.80;8.30;;;;;;;15.68;nan;100724.75;5066429;28;20028;-44
2022/05/12 03:20:18;;;;;;;13.02;8.23;;;;;;;15.69;nan;100745.28;5062521;28;20039;-45
2022/05/12 03:22:44;;;;;;;15.98;9.95;;;;;;;15.67;nan;100742.06;5059486;28;20360;-45
2022/05/12 03:25:12;;;;;;;14.60;9.05;;;;;;;15.60;nan;100738.06;5064829;28;20133;-44
2022/05/12 03:27:38;;;;;;;11.77;8.98;;;;;;;15.49;nan;100739.19;5063620;28;20390;-45
2022/05/12 03:30:07;;;;;;;13.27;8.90;;;;;;;15.48;nan;100737.59;5059503;28;20032;-45
2022/05/12 03:32:32;;;;;;;12.63;7.65;;;;;;;15.42;nan;100726.81;5061283;28;20033;-46
2022/05/12 03:34:58;;;;;;;11.63;7.15;;;;;;;15.38;nan;100738.44;5062335;28;20047;-45
2022/05/12 03:37:23;;;;;;;12.85;7.43;;;;;;;15.36;nan;100727.94;5059085;28;20642;-45
2022/05/12 03:39:49;;;;;;;11.15;6.43;;;;;;;15.34;nan;100719.31;5063445;28;20074;-44
2022/05/12 03:42:15;;;;;;;10.02;6.30;;;;;;;15.39;nan;100721.16;5061389;28;20066;-45
2022/05/12 03:44:49;;;;;;;8.13;5.18;;;;;;;15.29;nan;100762.53;5061468;28;20028;-45
2022/05/12 03:47:19;;;;;;;8.82;4.60;;;;;;;15.18;nan;100781.75;5062623;28;20119;-45
2022/05/12 03:49:50;;;;;;;9.57;4.38;;;;;;;15.10;nan;100780.47;5062831;28;20282;-45
2022/05/12 03:52:17;;;;;;;8.45;4.40;;;;;;;15.08;nan;100806.88;5063847;28;20391;-46
2022/05/12 03:54:43;;;;;;;8.00;3.88;;;;;;;15.09;nan;100795.84;5060698;28;20085;-45
2022/05/12 03:57:10;;;;;;;7.82;4.05;;;;;;;15.08;nan;100796.09;5060547;28;20443;-45
2022/05/12 03:59:38;;;;;;;7.53;3.55;;;;;;;15.08;nan;100796.09;5056776;28;20079;-45
2022/05/12 04:02:05;;;;;;;4.97;3.78;;;;;;;15.06;nan;100792.88;5064801;28;20051;-45
2022/05/12 04:04:31;;;;;;;4.63;2.70;;;;;;;15.06;nan;100787.47;5067683;28;20157;-44
2022/05/12 04:06:57;;;;;;;5.80;3.58;;;;;;;14.93;nan;100780.81;5062961;28;20497;-45
2022/05/12 04:09:23;;;;;;;7.55;3.70;;;;;;;14.80;nan;100784.88;5059717;28;20024;-45
2022/05/12 04:11:48;;;;;;;4.55;3.08;;;;;;;14.70;nan;100787.59;5062362;28;20039;-44
2022/05/12 04:14:14;;;;;;;7.68;2.92;;;;;;;14.70;nan;100811.88;5057448;28;20569;-44
2022/05/12 04:16:40;;;;;;;8.38;3.65;;;;;;;14.73;nan;100808.66;5060516;28;20032;-44
2022/05/12 04:19:05;;;;;;;5.65;3.38;;;;;;;14.74;nan;100804.06;5066146;28;20043;-45
2022/05/12 04:21:34;;;;;;;4.43;3.15;;;;;;;14.76;nan;100808.09;5057774;28;20028;-45
2022/05/12 04:24:01;;;;;;;9.10;3.50;;;;;;;14.84;nan;100812.09;5058639;28;20017;-45
2022/05/12 04:26:27;;;;;;;3.88;2.83;;;;;;;14.84;nan;100827.47;5057663;28;20436;-45
2022/05/12 04:28:53;;;;;;;10.30;3.55;;;;;;;14.89;nan;100835.56;5060022;28;20028;-45
2022/05/12 04:31:18;;;;;;;8.23;3.03;;;;;;;14.92;nan;100837.72;5057671;28;20081;-45
2022/05/12 04:36:28;;;;;;;7.22;2.97;;;;;;;14.89;nan;100828.25;5057288;28;20078;-45
2022/05/12 04:38:54;;;;;;;4.60;2.90;;;;;;;14.89;nan;100835.56;5063271;28;20029;-45
2022/05/12 04:41:19;;;;;;;9.32;3.17;;;;;;;14.93;nan;100837.44;5058953;28;20025;-45
2022/05/12 04:43:44;;;;;;;6.78;3.30;;;;;;;14.92;nan;100832.34;5057469;28;20036;-45
2022/05/12 04:46:10;;;;;;;7.85;3.58;;;;;;;14.96;nan;100846.88;5059478;28;20127;-46
2022/05/12 04:48:37;;;;;;;11.38;3.95;;;;;;;14.95;nan;100858.75;5057768;28;20035;-46
2022/05/12 04:51:03;;;;;;;4.70;2.78;;;;;;;14.94;nan;100860.66;5056604;28;20143;-45
2022/05/12 04:53:29;;;;;;;6.22;3.13;;;;;;;15.00;nan;100861.44;5057687;28;20056;-45
2022/05/12 04:55:55;;;;;;;7.35;3.42;;;;;;;15.03;nan;100874.38;5057808;28;20421;-46
2022/05/12 04:58:21;;;;;;;7.22;3.25;;;;;;;15.00;nan;100878.44;5065749;28;20376;-46
2022/05/12 05:00:46;;;;;;;5.22;3.35;;;;;;;14.98;nan;100893.28;5055658;28;21181;-45
2022/05/12 05:03:12;;;;;;;7.20;3.60;;;;;;;15.02;nan;100895.16;5054629;28;20513;-45
2022/05/12 05:05:38;;;;;;;7.28;3.58;;;;;;;15.03;nan;100896.75;5062626;28;20056;-45
2022/05/12 05:08:05;;;;;;;8.55;3.10;;;;;;;15.03;nan;100890.56;5059136;28;20466;-46
2022/05/12 05:10:32;;;;;;;9.25;3.50;;;;;;;15.07;nan;100905.13;5059185;28;20488;-46
2022/05/12 05:12:58;;;;;;;5.95;3.63;;;;;;;15.14;nan;100907.53;5055281;28;20111;-45
2022/05/12 05:15:25;;;;;;;9.10;3.95;;;;;;;15.13;nan;100922.94;5057610;28;20143;-45
2022/05/12 05:17:51;;;;;;;6.30;3.42;;;;;;;15.14;nan;100915.63;5061816;28;20036;-45
2022/05/12 05:20:23;;;;;;;9.80;3.75;;;;;;;15.14;nan;100934.53;5064548;28;20429;-45
2022/05/12 05:22:48;;;;;;;10.00;3.35;;;;;;;15.12;nan;100934.81;5063708;28;20032;-45
2022/05/12 05:25:15;;;;;;;6.50;2.88;;;;;;;14.91;nan;100925.13;5056177;28;20044;-45
2022/05/12 05:27:42;;;;;;;6.32;3.10;;;;;;;14.87;nan;100949.13;5058091;28;20024;-45
2022/05/12 05:30:12;;;;;;;61.38;6.25;;;;;;;14.81;nan;100958.31;5059601;28;20538;-49
2022/05/12 05:32:38;;;;;;;4.53;3.28;;;;;;;14.76;nan;100972.63;5058730;28;20127;-48
2022/05/12 05:35:05;;;;;;;5.43;3.08;;;;;;;14.82;nan;100971.53;5062460;28;20039;-47
2022/05/12 05:37:30;;;;;;;9.40;2.88;;;;;;;14.88;nan;100976.91;5058874;28;20040;-47
2022/05/12 05:39:56;;;;;;;7.05;2.80;;;;;;;14.97;nan;100988.78;5055239;28;20028;-49
2022/05/12 05:42:22;;;;;;;14.57;3.80;;;;;;;14.93;nan;100995.81;5057288;28;20021;-49
2022/05/12 05:44:48;;;;;;;5.70;3.20;;;;;;;14.92;nan;101002.28;5060784;28;20111;-47
2022/05/12 05:47:14;;;;;;;7.55;3.50;;;;;;;14.92;nan;100994.19;5061046;28;20035;-47
2022/05/12 05:49:41;;;;;;;5.30;3.22;;;;;;;14.93;nan;101020.09;5059712;28;20632;-46
2022/05/12 05:54:51;;;;;;;7.43;2.95;;;;;;;14.87;nan;101021.97;5067141;28;20039;-50
2022/05/12 05:57:25;;;;;;;9.90;3.25;;;;;;;14.89;nan;101024.41;5069816;28;20040;-47
2022/05/12 05:59:52;;;;;;;4.83;2.93;;;;;;;15.03;nan;101028.97;5069842;28;20032;-47
2022/05/12 06:02:18;;;;;;;8.52;3.10;;;;;;;15.08;nan;101030.88;5067945;28;20365;-47
2022/05/12 06:04:44;;;;;;;4.20;2.92;;;;;;;15.13;nan;101038.16;5066765;28;20151;-47
2022/05/12 06:07:10;;;;;;;8.43;3.25;;;;;;;15.19;nan;101037.88;5064706;28;20499;-48
2022/05/12 06:09:35;;;;;;;6.85;2.78;;;;;;;15.25;nan;101044.88;5066250;28;20024;-47
2022/05/12 06:12:01;;;;;;;7.32;2.70;;;;;;;15.26;nan;101051.94;5063944;28;20032;-47
2022/05/12 06:14:28;;;;;;;4.80;2.70;;;;;;;15.36;nan;101062.69;5063077;28;20074;-47
2022/05/12 06:16:54;;;;;;;5.88;2.60;;;;;;;15.37;nan;101063.50;5064891;28;20036;-48
2022/05/12 06:19:19;;;;;;;7.20;2.92;;;;;;;15.27;nan;101063.53;5069036;28;20380;-48
2022/05/12 06:21:45;;;;;;;8.27;2.35;;;;;;;15.30;nan;101080.00;5063520;28;20029;-47
2022/05/12 06:24:10;;;;;;;7.32;2.20;;;;;;;15.33;nan;101087.53;5067668;28;20060;-47
2022/05/12 06:26:36;;;;;;;3.08;2.05;;;;;;;15.38;nan;101094.81;5068456;28;20044;-47
2022/05/12 06:29:01;;;;;;;5.78;2.53;;;;;;;15.50;nan;101100.75;5067916;28;20031;-47
2022/05/12 06:31:30;;;;;;;5.43;1.88;;;;;;;15.50;nan;101100.75;5066260;28;20064;-48
2022/05/12 06:33:57;;;;;;;5.38;2.63;;;;;;;15.50;nan;101119.66;5063635;28;20036;-48
2022/05/12 06:36:23;;;;;;;5.80;2.10;;;;;;;15.59;nan;101119.94;5069185;28;20032;-48
2022/05/12 06:38:49;;;;;;;5.68;2.20;;;;;;;15.64;nan;101133.47;5068081;28;20059;-48
2022/05/12 06:41:15;;;;;;;4.72;2.45;;;;;;;15.66;nan;101142.09;5067993;28;20216;-48
2022/05/12 06:43:45;;;;;;;6.55;2.40;;;;;;;15.61;nan;101142.88;5058562;28;20466;-47
2022/05/12 06:46:12;;;;;;;7.53;2.85;;;;;;;15.44;nan;101161.25;5062540;28;20600;-48
2022/05/12 06:48:38;;;;;;;7.60;2.40;;;;;;;15.34;nan;101172.84;5068619;28;20502;-48
2022/05/12 06:51:03;;;;;;;4.85;2.63;;;;;;;15.30;nan;101179.88;5066775;28;20032;-48
2022/05/12 06:53:29;;;;;;;5.55;2.28;;;;;;;15.19;nan;101191.72;5062034;28;20032;-47
2022/05/12 06:55:55;;;;;;;7.20;2.60;;;;;;;15.10;nan;101198.75;5067549;28;21358;-48
2022/05/12 06:58:21;;;;;;;3.33;2.33;;;;;;;15.02;nan;101194.66;5064989;28;20036;-48
2022/05/12 07:00:47;;;;;;;4.57;2.55;;;;;;;14.85;nan;101214.84;5069491;28;20055;-48
2022/05/12 07:03:13;;;;;;;4.50;2.22;;;;;;;14.78;nan;101217.81;5069214;28;20541;-48
2022/05/12 07:05:39;;;;;;;6.72;2.15;;;;;;;14.77;nan;101219.69;5063105;28;20020;-47
2022/05/12 07:08:06;;;;;;;4.38;2.47;;;;;;;14.94;nan;101226.78;5068212;28;20043;-48
2022/05/12 07:10:31;;;;;;;4.15;2.50;;;;;;;15.20;nan;101235.72;5068586;28;20401;-48
2022/05/12 07:12:57;;;;;;;4.55;1.85;;;;;;;15.48;nan;101237.13;5060761;28;20032;-46
2022/05/12 07:15:27;;;;;;;5.25;2.50;;;;;;;15.59;nan;101242.28;5065253;28;20094;-47
2022/05/12 07:17:54;;;;;;;5.80;2.13;;;;;;;15.58;nan;101242.53;5065287;28;21561;-48
2022/05/12 07:28:34;;;;;;;8.20;1.88;;;;;;;15.78;nan;101272.28;5065257;28;20042;-48
2022/05/12 07:31:02;;;;;;;4.10;1.70;;;;;;;15.79;nan;101286.59;5064429;28;20467;-48
2022/05/12 07:33:32;;;;;;;3.03;1.45;;;;;;;15.67;nan;101295.78;5060597;28;20025;-48
2022/05/12 07:36:00;;;;;;;3.03;1.10;;;;;;;15.55;nan;101297.91;5063313;28;20622;-49
2022/05/12 07:38:26;;;;;;;3.00;0.95;;;;;;;15.50;nan;101307.88;5066473;28;20112;-49
2022/05/12 07:40:53;;;;;;;1.75;0.60;;;;;;;15.42;nan;101322.72;5064991;28;20812;-48
2022/05/12 07:43:19;;;;;;;3.97;0.50;;;;;;;15.42;nan;101333.50;5065723;28;20405;-48
2022/05/12 07:45:45;;;;;;;0.98;0.40;;;;;;;15.60;nan;101332.22;5063627;28;20398;-48
2022/05/12 07:48:11;;;;;;;4.90;0.60;;;;;;;15.76;nan;101342.00;5065726;28;20033;-47
2022/05/12 07:50:39;;;;;;;1.00;0.60;;;;;;;15.89;nan;101349.56;5059229;28;20051;-48
2022/05/12 07:53:04;;;;;;;1.98;0.22;;;;;;;15.94;nan;101346.88;5058689;28;20029;-48
2022/05/12 07:55:32;;;;;;;0.60;0.40;;;;;;;16.08;nan;101359.88;5062227;28;20028;-48
2022/05/12 07:57:59;;;;;;;4.72;0.47;;;;;;;16.10;nan;101373.91;5085596;22;20733;-42
2022/05/12 08:00:25;;;;;;;0.73;0.40;;;;;;;16.29;nan;101396.63;5082310;28;20063;-41
2022/05/12 08:02:51;;;;;;;0.50;0.30;;;;;;;16.32;nan;101398.78;5083926;28;20034;-41
2022/05/12 08:05:18;;;;;;;0.35;0.20;;;;;;;16.44;nan;101404.75;5082348;28;20028;-42
2022/05/12 08:07:45;;;;;;;1.40;0.40;;;;;;;16.62;nan;101412.31;5083459;28;20405;-42
2022/05/12 08:10:11;;;;;;;0.65;0.32;;;;;;;16.66;nan;101420.69;5081138;28;20058;-41
2022/05/12 08:12:37;;;;;;;1.17;0.40;;;;;;;16.73;nan;101428.59;5081547;28;20347;-41
2022/05/12 08:15:05;;;;;;;0.65;0.20;;;;;;;16.79;nan;101432.91;5077870;28;20024;-41
2022/05/12 08:17:30;;;;;;;1.05;0.95;;;;;;;16.95;nan;101436.38;5077110;28;20028;-41
2022/05/12 08:19:56;;;;;;;12.18;0.93;;;;;;;17.09;nan;101451.78;5082501;28;20035;-42
2022/05/12 08:22:21;;;;;;;1.63;0.68;;;;;;;16.88;nan;101440.19;5076872;28;20510;-41
2022/05/12 08:24:47;;;;;;;2.05;0.50;;;;;;;16.68;nan;101461.03;5081727;28;20119;-40
2022/05/12 08:27:13;;;;;;;1.85;0.47;;;;;;;16.52;nan;101471.84;5082782;28;20401;-41
2022/05/12 08:29:41;;;;;;;2.28;0.50;;;;;;;16.47;nan;101477.22;5082058;28;20024;-41
2022/05/12 08:32:07;;;;;;;0.50;0.40;;;;;;;16.39;nan;101480.47;5083351;28;20374;-41
2022/05/12 08:34:32;;;;;;;1.98;0.60;;;;;;;16.35;nan;101489.41;5081999;28;20159;-42
2022/05/12 08:36:58;;;;;;;1.85;0.60;;;;;;;16.20;nan;101476.69;5077427;28;20114;-41
2022/05/12 08:39:23;;;;;;;2.20;0.52;;;;;;;16.18;nan;101484.25;5082980;28;20051;-42
2022/05/12 08:41:56;;;;;;;1.42;0.60;;;;;;;16.43;nan;101486.97;5086497;28;20084;-41
2022/05/12 08:44:22;;;;;;;1.80;0.50;;;;;;;16.59;nan;101491.31;5083368;28;20050;-43
2022/05/12 08:47:00;;;;;;;3.22;0.60;;;;;;;16.82;nan;101494.59;5079582;28;20427;-41
2022/05/12 08:49:41;;;;;;;1.65;0.70;;;;;;;16.98;nan;101503.50;5083105;28;20023;-42
2022/05/12 08:52:28;;;;;;;2.50;0.57;;;;;;;17.06;nan;101513.81;5084682;28;20386;-41
2022/05/12 08:54:56;;;;;;;1.42;0.55;;;;;;;16.99;nan;101519.47;5081681;28;20020;-41
2022/05/12 08:57:36;;;;;;;2.47;0.98;;;;;;;16.45;nan;101521.88;5085068;28;20082;-41
2022/05/12 09:00:09;;;;;;;2.38;0.60;;;;;;;16.36;nan;101534.31;5084860;28;20091;-40
2022/05/12 09:02:59;;;;;;;5.05;0.80;;;;;;;16.56;nan;101534.34;5082437;28;20031;-41
2022/05/12 09:05:34;;;;;;;2.63;0.70;;;;;;;16.75;nan;101540.06;5082856;28;20174;-42
2022/05/12 09:08:18;;;;;;;3.25;0.90;;;;;;;16.90;nan;101545.47;5080775;28;20020;-41
2022/05/12 09:11:04;;;;;;;1.35;1.00;;;;;;;17.12;nan;101553.31;5081609;28;20036;-41
2022/05/12 09:13:46;;;;;;;3.75;0.60;;;;;;;17.11;nan;101555.22;5081685;28;20119;-42
2022/05/12 09:16:29;;;;;;;2.08;1.00;;;;;;;17.09;nan;101548.47;5084260;28;20020;-41
2022/05/12 09:18:55;;;;;;;1.83;0.95;;;;;;;16.92;nan;101556.84;5083024;28;20083;-41
2022/05/12 09:21:27;;;;;;;2.30;0.85;;;;;;;16.85;nan;101567.94;5082132;28;20039;-41
2022/05/12 09:23:53;;;;;;;2.08;0.75;;;;;;;16.85;nan;101559.00;5082775;28;20041;-41
2022/05/12 09:27:09;;;;;;;1.95;0.90;;;;;;;17.09;nan;101562.81;5076881;28;20024;-42
2022/05/12 09:29:50;;;;;;;1.92;0.65;;;;;;;17.30;nan;101560.06;5034496;28;20044;-41
2022/05/12 09:32:25;;;;;;;3.78;0.70;;;;;;;17.51;nan;101564.38;5076315;28;20393;-41
2022/05/12 09:35:20;;;;;;;2.45;0.70;;;;;;;17.43;nan;101564.94;5080502;28;20114;-42
2022/05/12 09:37:47;;;;;;;1.73;0.80;;;;;;;17.43;nan;101567.66;5083005;28;20403;-41
2022/05/12 09:40:13;;;;;;;2.47;0.80;;;;;;;17.48;nan;101578.47;5081361;28;20422;-41
2022/05/12 09:42:42;;;;;;;3.45;1.10;;;;;;;17.62;nan;101574.09;5078061;28;20046;-41
2022/05/12 09:45:28;;;;;;;2.78;0.80;;;;;;;17.69;nan;101571.94;5080591;28;20039;-41
2022/05/12 09:48:12;;;;;;;3.15;0.90;;;;;;;17.85;nan;101580.03;5078828;28;20024;-42
2022/05/12 09:50:38;;;;;;;1.17;0.70;;;;;;;17.79;nan;101580.03;5082875;28;20036;-42
2022/05/12 09:53:07;;;;;;;2.20;0.80;;;;;;;17.60;nan;101599.84;5083384;28;20243;-41
2022/05/12 09:55:39;;;;;;;3.13;0.80;;;;;;;17.47;nan;101598.50;5078702;28;20020;-44
2022/05/12 09:58:14;;;;;;;4.07;0.80;;;;;;;17.32;nan;101603.94;5076954;28;20151;-43
2022/05/12 10:01:19;;;;;;;4.78;0.93;;;;;;;17.12;nan;101602.06;5085751;28;20046;-41
2022/05/12 10:09:24;;;;;;;2.28;1.08;;;;;;;17.35;nan;101606.09;5078098;28;20389;-42
2022/05/12 10:12:15;;;;;;;1.52;0.80;;;;;;;17.18;nan;101612.59;5070068;28;20435;-41
2022/05/12 10:14:44;;;;;;;1.65;0.88;;;;;;;17.32;nan;101620.19;5077217;28;20021;-42
2022/05/12 10:17:33;;;;;;;0.98;0.60;;;;;;;17.61;nan;101621.25;5075459;28;20032;-41
2022/05/12 10:20:13;;;;;;;1.75;0.73;;;;;;;17.60;nan;101622.34;5075076;28;20036;-42
2022/05/12 10:22:54;;;;;;;6.18;0.60;;;;;;;17.40;nan;101622.34;5080952;28;21750;-40
2022/05/12 10:25:39;;;;;;;2.30;0.70;;;;;;;17.20;nan;101632.09;5075110;28;20028;-41
2022/05/12 10:28:44;;;;;;;1.92;0.90;;;;;;;17.26;nan;101635.66;5079915;28;20039;-41
2022/05/12 10:31:36;;;;;;;3.33;0.60;;;;;;;17.34;nan;101636.97;5083433;28;20103;-42
2022/05/12 10:34:20;;;;;;;1.55;0.73;;;;;;;17.48;nan;101638.06;5073610;28;20056;-41
2022/05/12 10:37:00;;;;;;;1.33;0.60;;;;;;;17.70;nan;101633.19;5075557;28;20032;-41
2022/05/12 10:40:03;;;;;;;1.95;0.63;;;;;;;17.60;nan;101641.31;5077331;28;20072;-42
2022/05/12 10:42:53;;;;;;;3.00;0.70;;;;;;;17.55;nan;101644.00;5080536;28;20128;-40
2022/05/12 10:45:31;;;;;;;1.45;0.50;;;;;;;17.39;nan;101650.53;5078976;28;20023;-42
2022/05/12 10:48:18;;;;;;;1.52;0.60;;;;;;;17.50;nan;101652.16;5076257;28;20603;-41
2022/05/12 10:50:53;;;;;;;1.33;0.60;;;;;;;17.71;nan;101659.19;5079340;28;20032;-41
2022/05/12 10:53:49;;;;;;;1.48;0.75;;;;;;;17.90;nan;101655.91;5082186;28;20036;-42
2022/05/12 10:56:31;;;;;;;1.50;0.65;;;;;;;17.79;nan;101655.13;5076062;28;20028;-42
2022/05/12 10:59:18;;;;;;;1.25;0.60;;;;;;;17.93;nan;101658.88;5083988;28;20016;-41
2022/05/12 11:01:50;;;;;;;1.73;0.63;;;;;;;18.06;nan;101649.34;5083618;28;20032;-42
2022/05/12 11:04:41;;;;;;;3.28;0.70;;;;;;;18.20;nan;101666.66;5079242;28;20024;-41
2022/05/12 11:07:24;;;;;;;4.13;0.80;;;;;;;18.01;nan;101660.22;5084598;28;20052;-42
2022/05/12 11:10:06;;;;;;;1.73;0.80;;;;;;;17.94;nan;101662.41;5085794;28;20022;-42
2022/05/12 11:12:47;;;;;;;4.90;0.95;;;;;;;17.96;nan;101666.47;5085395;28;20648;-42
2022/05/12 11:15:20;;;;;;;1.88;0.55;;;;;;;18.16;nan;101660.19;5080367;28;20039;-42
2022/05/12 11:17:53;;;;;;;1.55;0.65;;;;;;;18.35;nan;101653.06;5082591;28;20276;-41
2022/05/12 11:20:23;;;;;;;2.03;1.00;;;;;;;18.50;nan;101660.31;5085759;28;20040;-42
2022/05/12 11:23:13;;;;;;;1.38;0.65;;;;;;;18.37;nan;101660.91;5081023;28;20036;-41
2022/05/12 11:26:04;;;;;;;1.50;0.50;;;;;;;18.46;nan;101658.41;5081250;28;20032;-41
2022/05/12 11:31:30;;;;;;;4.43;1.13;;;;;;;19.15;nan;101673.78;5076945;28;20040;-43
2022/05/12 11:34:01;;;;;;;2.78;0.50;;;;;;;19.23;nan;101667.78;5078771;28;21002;-43
2022/05/12 11:36:42;;;;;;;0.95;0.60;;;;;;;19.27;nan;101653.31;5081674;28;20028;-42
2022/05/12 11:39:40;;;;;;;1.67;0.60;;;;;;;19.23;nan;101668.56;5080176;28;20492;-47
2022/05/12 11:42:21;;;;;;;0.63;0.40;;;;;;;19.49;nan;101657.47;5032476;28;20564;-41
2022/05/12 11:44:56;;;;;;;1.90;0.50;;;;;;;19.74;nan;101667.31;5081633;28;20068;-41
2022/05/12 11:47:21;;;;;;;1.42;0.70;;;;;;;19.77;nan;101662.16;5079108;28;20024;-43
2022/05/12 11:50:15;;;;;;;0.90;0.50;;;;;;;19.69;nan;101670.09;5083041;28;20035;-42
2022/05/12 11:52:53;;;;;;;0.90;0.60;;;;;;;19.54;nan;101663.72;5082312;28;20028;-42
2022/05/12 11:55:24;;;;;;;1.08;0.60;;;;;;;19.47;nan;101659.69;5084034;28;20036;-43
2022/05/12 11:58:13;;;;;;;1.15;0.57;;;;;;;19.48;nan;101664.00;5086246;28;20032;-42
2022/05/12 12:00:43;;;;;;;0.70;0.60;;;;;;;19.37;nan;101663.28;5074745;28;20041;-42
2022/05/12 12:03:15;;;;;;;3.20;0.60;;;;;;;19.43;nan;101661.34;5081889;28;20493;-43
2022/05/12 12:05:40;;;;;;;3.67;1.52;;;;;;;19.67;nan;101669.56;5082912;28;20028;-41
2022/05/12 12:08:06;;;;;;;0.50;0.50;;;;;;;19.88;nan;101665.56;5081009;28;20034;-41
2022/05/12 12:10:37;;;;;;;3.75;0.50;;;;;;;19.95;nan;101657.06;5081798;28;20052;-41
2022/05/12 12:13:25;;;;;;;1.10;0.50;;;;;;;20.02;nan;101663.78;5085271;28;20058;-44